| time (UTC) | temp C | wind direction | speed KPH | gust KPH | rain 1hr cm | rain 24hr cm | rain mn cm | humidity % | barometer mb |
| 20260506231538 | 19 | 320 | 0.0 | 6.4 | 0.00 | 0.33 | 0.33 | 76 | 1008.5 |
| 20260506230039 | 19 | 98 | 0.0 | 4.8 | 0.00 | 0.33 | 0.33 | 76 | 1008.4 |
| 20260506224537 | 20 | 233 | 0.0 | 11.3 | 0.00 | 0.33 | 0.33 | 76 | 1008.3 |
| 20260506223041 | 20 | 348 | 0.0 | 8.0 | 0.00 | 0.33 | 0.33 | 76 | 1007.9 |
| 20260506221551 | 20 | 0 | 0.0 | 3.2 | 0.00 | 0.33 | 0.33 | 76 | 1008.3 |
| 20260506220045 | 20 | 346 | 0.0 | 8.0 | 0.00 | 0.33 | 0.33 | 76 | 1008.2 |
| 20260506214539 | 19 | 141 | 0.0 | 11.3 | 0.00 | 0.33 | 0.33 | 75 | 1008.1 |
| 20260506213043 | 18 | 301 | 0.0 | 4.8 | 0.00 | 0.33 | 0.33 | 75 | 1007.9 |
| 20260506211544 | 18 | 274 | 0.0 | 4.8 | 0.00 | 0.33 | 0.33 | 75 | 1007.9 |
| 20260506210044 | 19 | 162 | 1.6 | 9.7 | 0.00 | 0.33 | 0.33 | 75 | 1007.9 |
| 20260506204539 | 19 | 214 | 1.6 | 11.3 | 0.00 | 0.33 | 0.33 | 74 | 1007.7 |
| 20260506203040 | 18 | 98 | 1.6 | 6.4 | 0.00 | 0.33 | 0.33 | 72 | 1007.6 |
| 20260506201540 | 17 | 20 | 3.2 | 8.0 | 0.00 | 0.33 | 0.33 | 71 | 1007.7 |
| 20260506200037 | 17 | 18 | 0.0 | 6.4 | 0.00 | 0.33 | 0.33 | 68 | 1007.8 |
| 20260506194544 | 17 | 42 | 1.6 | 6.4 | 0.00 | 0.33 | 0.33 | 66 | 1007.8 |
| 20260506193048 | 17 | 281 | 1.6 | 8.0 | 0.00 | 0.33 | 0.33 | 65 | 1008.1 |
| 20260506191539 | 17 | 302 | 1.6 | 9.7 | 0.00 | 0.33 | 0.33 | 61 | 1008.2 |
| 20260506190038 | 16 | 288 | 1.6 | 6.4 | 0.00 | 0.33 | 0.33 | 57 | 1008.3 |
| 20260506184539 | 17 | 330 | 1.6 | 9.7 | 0.00 | 0.33 | 0.33 | 63 | 1008.4 |
| 20260506183040 | 17 | 174 | 1.6 | 14.5 | 0.00 | 0.33 | 0.33 | 64 | 1008.3 |
| 20260506181548 | 16 | 234 | 0.0 | 4.8 | 0.00 | 0.33 | 0.33 | 63 | 1008.4 |
| 20260506180038 | 16 | 0 | 3.2 | 8.0 | 0.00 | 0.33 | 0.33 | 61 | 1008.6 |
| 20260506174538 | 17 | 184 | 3.2 | 14.5 | 0.03 | 0.33 | 0.33 | 62 | 1008.7 |
| 20260506173102 | 17 | 165 | 1.6 | 14.5 | 0.03 | 0.33 | 0.33 | 61 | 1009.0 |
| 20260506171543 | 17 | 119 | 1.6 | 8.0 | 0.05 | 0.33 | 0.33 | 61 | 1009.0 |
| 20260506170056 | 17 | 143 | 1.6 | 9.7 | 0.13 | 0.33 | 0.33 | 57 | 1008.7 |
| 20260506164537 | 17 | 126 | 1.6 | 9.7 | 0.15 | 0.30 | 0.30 | 50 | 1009.1 |
| 20260506163048 | 17 | 153 | 1.6 | 4.8 | 0.20 | 0.30 | 0.30 | 51 | 1009.0 |
| 20260506161544 | 16 | 138 | 1.6 | 9.7 | 0.23 | 0.28 | 0.28 | 54 | 1009.9 |
| 20260506160043 | 16 | 108 | 0.0 | 4.8 | 0.18 | 0.20 | 0.20 | 60 | 1010.2 |
| 20260506154600 | 16 | 300 | 0.0 | 4.8 | 0.15 | 0.15 | 0.15 | 67 | 1010.2 |
| 20260506153037 | 17 | 158 | 1.6 | 9.7 | 0.10 | 0.10 | 0.10 | 73 | 1010.4 |
| 20260506151537 | 17 | 134 | 0.0 | 4.8 | 0.05 | 0.05 | 0.05 | 74 | 1010.2 |
| 20260506150037 | 17 | 149 | 0.0 | 6.4 | 0.03 | 0.03 | 0.03 | 76 | 1010.0 |
| 20260506144544 | 18 | 68 | 1.6 | 9.7 | 0.00 | 0.00 | 0.00 | 76 | 1010.2 |
| 20260506143038 | 18 | 83 | 4.8 | 14.5 | 0.00 | 0.00 | 0.00 | 73 | 1010.3 |
| 20260506141537 | 20 | 289 | 3.2 | 11.3 | 0.00 | 0.00 | 0.00 | 71 | 1010.2 |
| 20260506140037 | 20 | 126 | 4.8 | 14.5 | 0.00 | 0.00 | 0.00 | 71 | 1009.9 |
| 20260506134535 | 19 | 187 | 4.8 | 11.3 | 0.00 | 0.00 | 0.00 | 73 | 1010.0 |
| 20260506133054 | 19 | 191 | 3.2 | 11.3 | 0.00 | 0.00 | 0.00 | 74 | 1010.0 |
| 20260506131539 | 19 | 140 | 1.6 | 8.0 | 0.00 | 0.00 | 0.00 | 74 | 1010.0 |
| 20260506130040 | 19 | 148 | 3.2 | 8.0 | 0.00 | 0.00 | 0.00 | 73 | 1010.2 |
| 20260506124536 | 18 | 25 | 3.2 | 14.5 | 0.00 | 0.00 | 0.00 | 75 | 1010.1 |
| 20260506123036 | 18 | 148 | 1.6 | 6.4 | 0.00 | 0.00 | 0.00 | 75 | 1010.1 |
| 20260506121540 | 18 | 157 | 1.6 | 9.7 | 0.00 | 0.00 | 0.00 | 75 | 1009.9 |
| 20260506120039 | 17 | 246 | 3.2 | 12.9 | 0.00 | 0.00 | 0.00 | 76 | 1010.1 |
| 20260506114540 | 17 | 135 | 3.2 | 11.3 | 0.00 | 0.00 | 0.00 | 76 | 1010.2 |
| 20260506113037 | 17 | 174 | 3.2 | 17.7 | 0.00 | 0.00 | 0.00 | 76 | 1010.2 |
| 20260506111536 | 17 | 190 | 3.2 | 12.9 | 0.00 | 0.00 | 0.00 | 76 | 1010.2 |
| 20260506110044 | 17 | 159 | 3.2 | 16.1 | 0.00 | 0.00 | 0.00 | 76 | 1010.1 |
| 20260506104605 | 17 | 123 | 3.2 | 12.9 | 0.00 | 0.00 | 0.00 | 76 | 1009.9 |
| 20260506103041 | 17 | 198 | 3.2 | 14.5 | 0.00 | 0.00 | 0.00 | 76 | 1009.8 |
| 20260506101541 | 17 | 206 | 3.2 | 12.9 | 0.00 | 0.00 | 0.00 | 76 | 1009.8 |
| 20260506100042 | 17 | 185 | 3.2 | 8.0 | 0.00 | 0.00 | 0.00 | 76 | 1009.9 |
| 20260506094538 | 17 | 196 | 1.6 | 16.1 | 0.00 | 0.00 | 0.00 | 76 | 1009.8 |
| 20260506093040 | 17 | 27 | 3.2 | 14.5 | 0.00 | 0.00 | 0.00 | 76 | 1009.7 |
| 20260506091539 | 17 | 271 | 3.2 | 9.7 | 0.00 | 0.00 | 0.00 | 76 | 1009.9 |
| 20260506090044 | 17 | 162 | 3.2 | 11.3 | 0.00 | 0.00 | 0.00 | 76 | 1009.9 |
| 20260506084538 | 17 | 120 | 3.2 | 8.0 | 0.00 | 0.00 | 0.00 | 76 | 1009.9 |
| 20260506083041 | 17 | 6 | 3.2 | 11.3 | 0.00 | 0.00 | 0.00 | 76 | 1010.0 |
| 20260506081542 | 17 | 111 | 3.2 | 9.7 | 0.00 | 0.00 | 0.00 | 76 | 1010.0 |
| 20260506073038 | 18 | 205 | 3.2 | 9.7 | 0.00 | 0.00 | 0.00 | 76 | 1010.0 |
| 20260506071537 | 18 | 90 | 1.6 | 8.0 | 0.00 | 0.00 | 0.00 | 76 | 1010.1 |
| 20260506061537 | 18 | 110 | 3.2 | 11.3 | 0.00 | 0.00 | 0.00 | 74 | 1010.6 |
| 20260506044538 | 18 | 146 | 1.6 | 11.3 | 0.00 | 0.00 | 0.00 | 70 | 1011.2 |
| 20260506043047 | 19 | 129 | 1.6 | 8.0 | 0.00 | 0.00 | 0.00 | 69 | 1011.1 |
| 20260506041544 | 19 | 179 | 1.6 | 8.0 | 0.00 | 0.00 | 0.00 | 68 | 1011.0 |
| 20260506040047 | 19 | 204 | 1.6 | 8.0 | 0.00 | 0.00 | 0.00 | 67 | 1011.0 |
| 20260506034537 | 20 | 117 | 3.2 | 8.0 | 0.00 | 0.00 | 0.00 | 66 | 1010.9 |
| 20260506033036 | 20 | 159 | 3.2 | 11.3 | 0.00 | 0.00 | 0.00 | 65 | 1010.8 |
| 20260506031541 | 20 | 127 | 1.6 | 9.7 | 0.00 | 0.00 | 0.00 | 65 | 1010.7 |
| 20260506030040 | 20 | 221 | 3.2 | 9.7 | 0.00 | 0.00 | 0.00 | 64 | 1010.9 |
| 20260506024544 | 20 | 301 | 3.2 | 9.7 | 0.00 | 0.00 | 0.00 | 64 | 1010.9 |
| 20260506023036 | 20 | 173 | 3.2 | 14.5 | 0.00 | 0.00 | 0.00 | 63 | 1011.0 |
| 20260506021549 | 21 | 193 | 3.2 | 14.5 | 0.00 | 0.00 | 0.00 | 61 | 1010.9 |
| 20260506020038 | 21 | 119 | 4.8 | 17.7 | 0.00 | 0.00 | 0.00 | 59 | 1010.9 |
| 20260506014537 | 21 | 217 | 1.6 | 11.3 | 0.00 | 0.00 | 0.00 | 56 | 1010.9 |
| 20260506013041 | 22 | 132 | 3.2 | 11.3 | 0.00 | 0.00 | 0.00 | 52 | 1010.7 |
| 20260506011545 | 22 | 170 | 3.2 | 12.9 | 0.00 | 0.00 | 0.00 | 50 | 1010.6 |
| 20260506010047 | 22 | 178 | 3.2 | 9.7 | 0.00 | 0.00 | 0.00 | 48 | 1010.4 |
| 20260506004538 | 23 | 169 | 3.2 | 11.3 | 0.00 | 0.00 | 0.00 | 47 | 1010.3 |
| 20260506003037 | 23 | 26 | 3.2 | 8.0 | 0.00 | 0.00 | 0.00 | 47 | 1010.1 |
| 20260506001536 | 23 | 219 | 3.2 | 9.7 | 0.00 | 0.00 | 0.00 | 48 | 1010.0 |
| 20260506000042 | 23 | 195 | 1.6 | 9.7 | 0.00 | 0.00 | 0.00 | 48 | 1009.9 |
| 20260505234603 | 23 | 63 | 1.6 | 11.3 | 0.00 | 0.00 | 0.00 | 47 | 1009.8 |
| 20260505233038 | 24 | 115 | 1.6 | 9.7 | 0.00 | 0.00 | 0.00 | 46 | 1009.8 |